SPJL/JUL METAR and TAF weather

Enter ICAO airport designator
Station Type Date Time Source
SPJL METAR 2020/07/02 19:00 UTC NOAA

SPJL 021900Z 15003KT CAVOK 16/M26 Q1032 RMK PP000


Station Type Date Time Source
SPJL Decoded METAR 2020/07/02 19:00 UTC NOAA

Juliaca, Peru (SPJL) 15-29S 070-09W 3827M
Jul 02, 2020 - 03:00 PM EDT / 2020.07.02 1900 UTC
Wind: from the SSE (150 degrees) at 3 MPH (3 KT):0
Visibility: greater than 7 mile(s):0
Temperature: 60 F (16 C)
Dew Point: -14 F (-26 C)
Relative Humidity: 4%
Pressure (altimeter): 30.47 in. Hg (1032 hPa)
ob: SPJL 021900Z 15003KT CAVOK 16/M26 Q1032 RMK PP000
cycle: 19

Station Type Date Time Source
SPJL TAF 2020/07/02 12:53 UTC NOAA

TAF SPJL 021330Z 0212/0312 03003KT CAVOK TX16/0219Z TNM11/0310Z
FM021700 24007KT CAVOK
FM022300 19004KT CAVOK

Example: see airport list